createdAt,value
2022-09-11T00:00:41.599Z,45.76
2022-09-11T00:01:41.639Z,47.70
2022-09-11T00:02:41.671Z,46.08
2022-09-11T00:03:41.639Z,49.47
2022-09-11T00:04:41.599Z,45.92
2022-09-11T00:05:41.591Z,45.76
2022-09-11T00:06:41.628Z,45.92
2022-09-11T00:07:41.572Z,46.25
2022-09-11T00:08:41.567Z,46.25
2022-09-11T00:09:41.551Z,47.05
2022-09-11T00:10:41.546Z,47.05
2022-09-11T00:11:41.542Z,46.57
2022-09-11T00:12:41.550Z,48.34
2022-09-11T00:13:41.614Z,46.25
2022-09-11T00:14:41.506Z,45.92
2022-09-11T00:15:42.511Z,45.76
2022-09-11T00:16:41.532Z,45.76
2022-09-11T00:17:42.110Z,46.57
2022-09-11T00:18:41.499Z,45.92
2022-09-11T00:19:41.499Z,45.92
2022-09-11T00:20:41.498Z,46.57
2022-09-11T00:21:41.480Z,46.08
2022-09-11T00:22:41.522Z,46.89
2022-09-11T00:23:41.594Z,45.76
2022-09-11T00:24:41.474Z,53.33
2022-09-11T00:25:41.472Z,49.31
2022-09-11T00:26:41.483Z,45.92
2022-09-11T00:27:41.447Z,46.25
2022-09-11T00:28:41.450Z,46.57
2022-09-11T00:29:41.431Z,46.41
2022-09-11T00:30:41.438Z,46.25
2022-09-11T00:31:41.448Z,46.08
2022-09-11T00:32:41.411Z,46.08
2022-09-11T00:33:41.558Z,46.41
2022-09-11T00:34:41.400Z,46.57
2022-09-11T00:35:41.392Z,47.05
2022-09-11T00:36:41.486Z,49.15
2022-09-11T00:37:41.382Z,46.57
2022-09-11T00:38:41.394Z,47.05
2022-09-11T00:40:13.390Z,43.18
2022-09-11T00:40:41.368Z,48.66
2022-09-11T00:41:41.353Z,46.73
2022-09-11T00:42:41.339Z,46.41
2022-09-11T00:43:41.555Z,46.41
2022-09-11T00:44:41.323Z,46.73
2022-09-11T00:45:41.435Z,46.25
2022-09-11T00:46:41.320Z,45.92
2022-09-11T00:47:42.309Z,45.92
2022-09-11T00:48:41.315Z,45.76
2022-09-11T00:49:41.332Z,46.25
2022-09-11T00:50:41.312Z,46.57
2022-09-11T00:51:41.308Z,46.08
2022-09-11T00:52:41.303Z,47.05
2022-09-11T00:53:41.312Z,49.15
2022-09-11T00:54:41.289Z,46.41
2022-09-11T00:55:41.268Z,47.53
2022-09-11T00:56:41.289Z,45.92
2022-09-11T00:57:41.264Z,45.76
2022-09-11T00:58:41.256Z,47.05
2022-09-11T00:59:41.264Z,46.08
2022-09-11T01:00:41.291Z,46.57
2022-09-11T01:01:41.255Z,46.08
2022-09-11T01:02:41.223Z,46.41
2022-09-11T01:03:41.299Z,46.25
2022-09-11T01:04:41.251Z,47.53
2022-09-11T01:05:41.223Z,45.60
2022-09-11T01:06:41.212Z,46.25
2022-09-11T01:07:41.221Z,49.31
2022-09-11T01:08:41.192Z,48.34
2022-09-11T01:09:41.199Z,47.37
2022-09-11T01:10:41.203Z,45.92
2022-09-11T01:11:41.196Z,46.08
2022-09-11T01:12:41.169Z,46.41
2022-09-11T01:13:41.218Z,46.25
2022-09-11T01:14:41.155Z,48.50
2022-09-11T01:15:41.151Z,46.41
2022-09-11T01:16:41.165Z,46.41
2022-09-11T01:17:41.147Z,46.08
2022-09-11T01:18:41.138Z,46.25
2022-09-11T01:19:41.123Z,47.37
2022-09-11T01:20:41.116Z,46.89
2022-09-11T01:21:41.133Z,46.25
2022-09-11T01:22:41.105Z,46.57
2022-09-11T01:23:41.095Z,46.57
2022-09-11T01:24:41.101Z,46.89
2022-09-11T01:25:41.097Z,46.41
2022-09-11T01:26:41.109Z,46.41
2022-09-11T01:27:41.085Z,48.02
2022-09-11T01:28:41.138Z,46.57
2022-09-11T01:29:41.088Z,48.02
2022-09-11T01:30:41.064Z,46.41
2022-09-11T01:31:41.111Z,46.08
2022-09-11T01:32:41.060Z,46.25
2022-09-11T01:33:41.134Z,46.57
2022-09-11T01:34:41.044Z,46.25
2022-09-11T01:35:41.053Z,46.08
2022-09-11T01:36:41.072Z,46.41
2022-09-11T01:37:41.034Z,47.21
2022-09-11T01:38:41.004Z,46.25
2022-09-11T01:39:41.034Z,46.73
2022-09-11T01:40:41.009Z,47.86
2022-09-11T01:41:40.999Z,46.25
2022-09-11T01:42:41.016Z,46.08
2022-09-11T01:43:41.169Z,45.60
2022-09-11T01:44:40.970Z,46.41
2022-09-11T01:45:41.044Z,46.57
2022-09-11T01:46:40.963Z,46.57
2022-09-11T01:47:40.967Z,46.25
2022-09-11T01:48:40.978Z,46.41
2022-09-11T01:49:40.943Z,47.21
2022-09-11T01:50:40.952Z,46.89
2022-09-11T01:51:40.932Z,45.92
2022-09-11T01:52:41.591Z,45.92
2022-09-11T01:53:40.977Z,46.08
2022-09-11T01:54:40.915Z,46.08
2022-09-11T01:55:40.908Z,45.92
2022-09-11T01:56:40.933Z,46.25
2022-09-11T01:57:40.930Z,46.89
2022-09-11T01:58:40.907Z,46.41
2022-09-11T01:59:40.890Z,46.08
2022-09-11T02:00:40.911Z,45.76
2022-09-11T02:01:40.917Z,46.41
2022-09-11T02:02:40.863Z,46.41
2022-09-11T02:03:41.046Z,46.57
2022-09-11T02:04:40.880Z,46.73
2022-09-11T02:05:40.846Z,45.92
2022-09-11T02:06:40.857Z,46.25
2022-09-11T02:07:40.839Z,45.60
2022-09-11T02:08:40.863Z,45.76
2022-09-11T02:09:41.929Z,46.41
2022-09-11T02:10:40.819Z,46.08
2022-09-11T02:11:40.819Z,46.08
2022-09-11T02:12:40.811Z,46.25
2022-09-11T02:13:40.843Z,46.08
2022-09-11T02:14:40.818Z,46.08
2022-09-11T02:15:40.801Z,46.25
2022-09-11T02:16:40.806Z,45.44
2022-09-11T02:17:40.782Z,46.08
2022-09-11T02:18:40.774Z,46.25
2022-09-11T02:19:40.776Z,46.08
2022-09-11T02:20:40.762Z,48.50
2022-09-11T02:21:40.769Z,46.25
2022-09-11T02:22:40.750Z,45.92
2022-09-11T02:23:40.776Z,47.05
2022-09-11T02:24:40.739Z,45.76
2022-09-11T02:25:41.525Z,46.25
2022-09-11T02:26:40.761Z,47.86
2022-09-11T02:27:40.761Z,46.41
2022-09-11T02:28:40.711Z,46.08
2022-09-11T02:29:40.706Z,46.25
2022-09-11T02:30:40.706Z,45.92
2022-09-11T02:31:40.769Z,46.89
2022-09-11T02:32:40.744Z,47.21
2022-09-11T02:33:40.723Z,45.92
2022-09-11T02:34:40.768Z,46.25
2022-09-11T02:35:40.671Z,46.08
2022-09-11T02:36:40.686Z,46.25
2022-09-11T02:37:40.676Z,45.92
2022-09-11T02:38:40.666Z,46.57
2022-09-11T02:39:40.690Z,46.08
2022-09-11T02:40:40.649Z,46.08
2022-09-11T02:41:40.655Z,46.08
2022-09-11T02:42:40.641Z,49.79
2022-09-11T02:43:40.705Z,45.92
2022-09-11T02:44:40.647Z,45.76
2022-09-11T02:45:40.669Z,45.60
2022-09-11T02:46:40.622Z,46.08
2022-09-11T02:47:40.629Z,45.76
2022-09-11T02:48:40.599Z,46.08
2022-09-11T02:49:40.625Z,45.76
2022-09-11T02:50:40.595Z,46.57
2022-09-11T02:51:40.611Z,47.70
2022-09-11T02:52:40.574Z,46.08
2022-09-11T02:53:40.644Z,46.25
2022-09-11T02:54:40.563Z,45.92
2022-09-11T02:55:40.571Z,46.08
2022-09-11T02:56:40.544Z,45.92
2022-09-11T02:57:40.557Z,46.08
2022-09-11T02:58:40.577Z,45.44
2022-09-11T02:59:40.532Z,46.08
2022-09-11T03:00:40.554Z,49.15
2022-09-11T03:01:40.575Z,45.92
2022-09-11T03:02:40.527Z,46.41
2022-09-11T03:03:40.548Z,46.41
2022-09-11T03:04:40.502Z,47.05
2022-09-11T03:05:40.508Z,48.82
2022-09-11T03:06:40.501Z,46.08
2022-09-11T03:07:40.497Z,46.41
2022-09-11T03:08:40.496Z,46.89
2022-09-11T03:09:40.474Z,45.76
2022-09-11T03:10:40.501Z,45.92
2022-09-11T03:11:40.461Z,46.57
2022-09-11T03:12:40.472Z,46.08
2022-09-11T03:13:40.523Z,46.08
2022-09-11T03:14:40.445Z,53.33
2022-09-11T03:15:40.443Z,50.92
2022-09-11T03:16:40.502Z,46.89
2022-09-11T03:17:40.429Z,46.08
2022-09-11T03:18:40.429Z,46.25
2022-09-11T03:19:40.420Z,46.41
2022-09-11T03:20:40.419Z,46.25
2022-09-11T03:21:40.416Z,47.05
2022-09-11T03:22:40.407Z,46.25
2022-09-11T03:23:40.464Z,46.41
2022-09-11T03:24:40.389Z,47.05
2022-09-11T03:25:40.390Z,45.44
2022-09-11T03:26:40.383Z,46.08
2022-09-11T03:27:40.379Z,45.76
2022-09-11T03:28:40.376Z,45.76
2022-09-11T03:29:40.360Z,45.76
2022-09-11T03:30:40.354Z,45.44
2022-09-11T03:31:40.387Z,44.96
2022-09-11T03:32:41.133Z,46.25
2022-09-11T03:33:40.414Z,45.76
2022-09-11T03:34:40.338Z,45.76
2022-09-11T03:35:40.326Z,45.76
2022-09-11T03:36:40.337Z,45.76
2022-09-11T03:37:40.321Z,45.60
2022-09-11T03:38:40.334Z,46.08
2022-09-11T03:39:40.308Z,45.76
2022-09-11T03:40:40.285Z,45.76
2022-09-11T03:41:40.281Z,45.92
2022-09-11T03:42:40.302Z,45.60
2022-09-11T03:43:40.352Z,47.53
2022-09-11T03:44:40.269Z,46.08
2022-09-11T03:45:40.334Z,45.76
2022-09-11T03:46:40.253Z,48.66
2022-09-11T03:47:40.282Z,45.92
2022-09-11T03:48:40.242Z,50.76
2022-09-11T03:49:40.241Z,46.25
2022-09-11T03:50:40.233Z,46.08
2022-09-11T03:51:40.229Z,46.41
2022-09-11T03:52:40.272Z,45.76
2022-09-11T03:53:40.233Z,45.60
2022-09-11T03:54:40.209Z,45.76
2022-09-11T03:55:40.201Z,45.76
2022-09-11T03:56:40.201Z,45.60
2022-09-11T03:57:40.187Z,46.08
2022-09-11T03:58:40.209Z,46.08
2022-09-11T03:59:40.183Z,46.25
2022-09-11T04:00:40.234Z,46.25
2022-09-11T04:01:40.233Z,46.89
2022-09-11T04:02:40.177Z,46.08
2022-09-11T04:03:40.209Z,46.25
2022-09-11T04:04:40.145Z,45.76
2022-09-11T04:05:40.142Z,46.41
2022-09-11T04:06:40.143Z,45.92
2022-09-11T04:07:40.124Z,46.57
2022-09-11T04:08:40.137Z,48.02
2022-09-11T04:09:40.135Z,45.76
2022-09-11T04:10:40.119Z,48.66
2022-09-11T04:11:40.117Z,46.41
2022-09-11T04:12:40.098Z,45.60
2022-09-11T04:13:41.175Z,45.76
2022-09-11T04:14:40.137Z,45.76
2022-09-11T04:15:40.077Z,47.05
2022-09-11T04:16:40.133Z,45.60
2022-09-11T04:17:40.068Z,46.08
2022-09-11T04:18:40.060Z,46.08
2022-09-11T04:19:40.081Z,46.57
2022-09-11T04:20:40.590Z,45.76
2022-09-11T04:21:40.086Z,45.92
2022-09-11T04:22:40.046Z,46.89
2022-09-11T04:23:40.103Z,49.47
2022-09-11T04:24:40.039Z,46.25
2022-09-11T04:25:40.017Z,47.37
2022-09-11T04:26:40.013Z,46.41
2022-09-11T04:27:40.013Z,46.89
2022-09-11T04:28:40.010Z,46.73
2022-09-11T04:29:40.013Z,46.41
2022-09-11T04:30:39.997Z,46.89
2022-09-11T04:31:40.044Z,46.57
2022-09-11T04:32:39.993Z,46.08
2022-09-11T04:33:40.009Z,46.25
2022-09-11T04:34:40.081Z,45.92
2022-09-11T04:35:39.966Z,46.25
2022-09-11T04:36:39.985Z,46.41
2022-09-11T04:37:39.958Z,46.08
2022-09-11T04:38:39.957Z,47.37
2022-09-11T04:39:39.995Z,51.40
2022-09-11T04:40:39.933Z,46.08
2022-09-11T04:41:39.928Z,45.92
2022-09-11T04:42:39.953Z,46.57
2022-09-11T04:43:40.011Z,50.92
2022-09-11T04:44:39.909Z,47.86
2022-09-11T04:45:39.920Z,46.89
2022-09-11T04:46:39.902Z,46.41
2022-09-11T04:47:39.901Z,46.25
2022-09-11T04:48:39.877Z,46.25
2022-09-11T04:49:39.888Z,46.41
2022-09-11T04:50:39.929Z,46.41
2022-09-11T04:51:39.861Z,47.53
2022-09-11T04:52:39.869Z,47.53
2022-09-11T04:53:39.877Z,47.05
2022-09-11T04:54:39.861Z,48.02
2022-09-11T04:55:39.841Z,47.70
2022-09-11T04:56:39.841Z,46.73
2022-09-11T04:57:39.830Z,46.57
2022-09-11T04:58:39.820Z,46.57
2022-09-11T04:59:39.862Z,47.37
2022-09-11T05:00:39.831Z,47.53
2022-09-11T05:01:39.809Z,47.70
2022-09-11T05:02:39.792Z,46.89
2022-09-11T05:03:39.840Z,47.05
2022-09-11T05:04:39.801Z,47.05
2022-09-11T05:05:39.780Z,46.57
2022-09-11T05:06:39.788Z,46.57
2022-09-11T05:07:39.772Z,46.08
2022-09-11T05:08:39.785Z,47.53
2022-09-11T05:09:39.758Z,47.05
2022-09-11T05:10:39.786Z,49.47
2022-09-11T05:11:39.744Z,46.73
2022-09-11T05:12:39.736Z,46.57
2022-09-11T05:13:39.751Z,46.41
2022-09-11T05:14:39.733Z,49.15
2022-09-11T05:15:39.721Z,46.08
2022-09-11T05:16:40.734Z,47.86
2022-09-11T05:17:39.721Z,49.47
2022-09-11T05:18:39.720Z,46.73
2022-09-11T05:19:39.697Z,46.41
2022-09-11T05:20:39.712Z,47.70
2022-09-11T05:21:39.689Z,48.18
2022-09-11T05:22:39.689Z,48.50
2022-09-11T05:23:39.669Z,46.57
2022-09-11T05:24:39.667Z,46.73
2022-09-11T05:25:39.684Z,50.76
2022-09-11T05:26:39.648Z,51.24
2022-09-11T05:27:39.650Z,47.21
2022-09-11T05:28:39.644Z,49.95
2022-09-11T05:29:39.643Z,49.31
2022-09-11T05:30:39.637Z,49.31
2022-09-11T05:31:39.668Z,48.18
2022-09-11T05:32:40.624Z,50.92
2022-09-11T05:33:39.636Z,50.11
2022-09-11T05:34:39.629Z,49.63
2022-09-11T05:35:39.604Z,48.18
2022-09-11T05:36:39.644Z,55.75
2022-09-11T05:37:39.597Z,46.25
2022-09-11T05:38:39.580Z,48.50
2022-09-11T05:39:39.619Z,47.70
2022-09-11T05:40:39.596Z,52.37
2022-09-11T05:41:39.584Z,46.57
2022-09-11T05:42:39.581Z,46.73
2022-09-11T05:43:39.569Z,45.92
2022-09-11T05:44:39.552Z,46.89
2022-09-11T05:45:39.588Z,48.66
2022-09-11T05:46:39.581Z,51.72
2022-09-11T05:47:39.549Z,54.14
2022-09-11T05:48:39.528Z,45.76
2022-09-11T05:49:39.538Z,46.89
2022-09-11T05:50:39.517Z,47.21
2022-09-11T05:51:39.557Z,58.81
2022-09-11T05:52:39.536Z,46.25
2022-09-11T05:53:39.556Z,50.43
2022-09-11T05:54:39.492Z,52.69
2022-09-11T05:55:39.496Z,56.56
2022-09-11T05:56:39.484Z,48.50
2022-09-11T05:57:39.489Z,61.71
2022-09-11T05:58:39.488Z,47.37
2022-09-11T05:59:39.478Z,45.28
2022-09-11T06:00:39.457Z,45.60
2022-09-11T06:01:39.474Z,55.43
2022-09-11T06:02:39.450Z,56.40
2022-09-11T06:03:39.646Z,55.27
2022-09-11T06:04:39.448Z,55.11
2022-09-11T06:05:39.422Z,51.08
2022-09-11T06:06:39.438Z,49.47
2022-09-11T06:07:39.437Z,46.73
2022-09-11T06:08:39.401Z,46.25
2022-09-11T06:09:39.426Z,50.27
2022-09-11T06:10:39.393Z,46.25
2022-09-11T06:11:39.394Z,50.76
2022-09-11T06:12:39.385Z,47.53
2022-09-11T06:13:39.427Z,46.08
2022-09-11T06:14:39.413Z,53.33
2022-09-11T06:15:46.619Z,47.37
2022-09-11T06:16:41.399Z,48.34
2022-09-11T06:17:40.365Z,46.41
2022-09-11T06:18:39.350Z,46.41
2022-09-11T06:19:39.341Z,44.96
2022-09-11T06:20:39.354Z,57.69
2022-09-11T06:21:39.333Z,53.33
2022-09-11T06:22:39.321Z,49.31
2022-09-11T06:23:39.364Z,50.60
2022-09-11T06:24:39.321Z,50.27
2022-09-11T06:25:39.325Z,47.53
2022-09-11T06:26:39.293Z,49.15
2022-09-11T06:27:39.309Z,48.02
2022-09-11T06:28:39.281Z,46.08
2022-09-11T06:29:39.289Z,49.95
2022-09-11T06:30:39.335Z,46.41
2022-09-11T06:31:39.281Z,58.49
2022-09-11T06:32:39.264Z,48.18
2022-09-11T06:33:39.338Z,45.60
2022-09-11T06:34:39.249Z,46.41
2022-09-11T06:35:39.269Z,46.41
2022-09-11T06:36:39.233Z,45.92
2022-09-11T06:37:39.276Z,45.12
2022-09-11T06:38:39.248Z,46.89
2022-09-11T06:40:11.698Z,46.41
2022-09-11T06:40:40.156Z,49.95
2022-09-11T06:41:39.209Z,47.05
2022-09-11T06:42:39.202Z,45.60
2022-09-11T06:43:39.255Z,47.70
2022-09-11T06:44:39.182Z,45.92
2022-09-11T06:45:39.222Z,45.92
2022-09-11T06:46:39.200Z,53.98
2022-09-11T06:47:39.161Z,50.60
2022-09-11T06:48:39.153Z,50.11
2022-09-11T06:49:39.173Z,47.86
2022-09-11T06:50:39.165Z,49.31
2022-09-11T06:51:39.152Z,51.56
2022-09-11T06:52:39.125Z,62.04
2022-09-11T06:53:39.226Z,49.79
2022-09-11T06:54:39.184Z,46.08
2022-09-11T06:55:39.115Z,52.85
2022-09-11T06:56:39.104Z,49.95
2022-09-11T06:57:41.972Z,51.88
2022-09-11T06:58:40.093Z,48.98
2022-09-11T06:59:39.761Z,51.88
2022-09-11T07:00:39.084Z,55.27
2022-09-11T07:01:39.175Z,49.95
2022-09-11T07:02:39.097Z,52.69
2022-09-11T07:03:39.139Z,50.11
2022-09-11T07:04:39.072Z,53.01
2022-09-11T07:05:39.039Z,56.88
2022-09-11T07:06:39.056Z,51.24
2022-09-11T07:07:39.053Z,49.31
2022-09-11T07:08:39.032Z,46.41
2022-09-11T07:09:39.020Z,45.60
2022-09-11T07:10:39.029Z,50.76
2022-09-11T07:11:39.006Z,52.53
2022-09-11T07:12:39.016Z,48.18
2022-09-11T07:13:39.082Z,51.24
2022-09-11T07:14:38.984Z,53.82
2022-09-11T07:15:38.965Z,54.30
2022-09-11T07:16:39.036Z,53.98
2022-09-11T07:17:38.976Z,48.34
2022-09-11T07:18:38.956Z,49.79
2022-09-11T07:19:38.937Z,49.31
2022-09-11T07:20:39.009Z,53.01
2022-09-11T07:21:38.941Z,51.40
2022-09-11T07:22:38.941Z,52.53
2022-09-11T07:23:38.988Z,53.33
2022-09-11T07:24:38.907Z,59.30
2022-09-11T07:25:38.899Z,61.87
2022-09-11T07:26:38.911Z,58.49
2022-09-11T07:27:38.911Z,47.86
2022-09-11T07:28:38.887Z,61.71
2022-09-11T07:29:38.878Z,49.47
2022-09-11T07:30:38.914Z,59.14
2022-09-11T07:31:38.861Z,47.86
2022-09-11T07:32:38.872Z,47.37
2022-09-11T07:33:38.966Z,64.29
2022-09-11T07:34:38.859Z,52.69
2022-09-11T07:35:38.830Z,45.76
2022-09-11T07:36:38.854Z,47.70
2022-09-11T07:37:38.836Z,53.33
2022-09-11T07:38:38.818Z,52.85
2022-09-11T07:39:38.864Z,52.69
2022-09-11T07:40:38.826Z,52.21
2022-09-11T07:41:38.826Z,53.33
2022-09-11T07:42:38.794Z,47.86
2022-09-11T07:43:38.865Z,50.92
2022-09-11T07:44:38.792Z,59.62
2022-09-11T07:45:38.805Z,56.72
2022-09-11T07:46:38.773Z,51.40
2022-09-11T07:47:38.768Z,57.52
2022-09-11T07:48:38.768Z,50.60
2022-09-11T07:49:38.756Z,48.66
2022-09-11T07:50:38.752Z,46.08
2022-09-11T07:51:38.777Z,54.79
2022-09-11T07:52:38.745Z,51.56
2022-09-11T07:53:38.816Z,56.88
2022-09-11T07:54:38.713Z,61.55
2022-09-11T07:55:38.726Z,48.18
2022-09-11T07:56:38.717Z,62.68
2022-09-11T07:57:38.698Z,47.53
2022-09-11T07:58:38.689Z,48.50
2022-09-11T07:59:38.709Z,47.05
2022-09-11T08:00:38.681Z,59.62
2022-09-11T08:01:38.708Z,49.15
2022-09-11T08:02:38.726Z,51.08
2022-09-11T08:03:38.780Z,44.15
2022-09-11T08:04:38.678Z,55.43
2022-09-11T08:05:38.650Z,58.49
2022-09-11T08:06:38.643Z,52.21
2022-09-11T08:07:38.647Z,45.28
2022-09-11T08:08:38.774Z,53.82
2022-09-11T08:09:38.634Z,46.57
2022-09-11T08:10:38.619Z,58.81
2022-09-11T08:11:38.638Z,51.40
2022-09-11T08:12:38.634Z,55.11
2022-09-11T08:13:38.685Z,63.65
2022-09-11T08:14:38.587Z,58.17
2022-09-11T08:15:38.591Z,59.94
2022-09-11T08:16:38.633Z,49.31
2022-09-11T08:17:38.603Z,57.04
2022-09-11T08:18:38.575Z,46.08
2022-09-11T08:19:38.586Z,55.91
2022-09-11T08:20:38.582Z,51.72
2022-09-11T08:21:38.585Z,63.16
2022-09-11T08:22:38.726Z,51.40
2022-09-11T08:23:39.563Z,53.98
2022-09-11T08:24:38.538Z,45.92
2022-09-11T08:25:38.562Z,47.37
2022-09-11T08:26:38.515Z,55.59
2022-09-11T08:27:38.526Z,60.42
2022-09-11T08:28:38.511Z,49.95
2022-09-11T08:29:38.504Z,54.95
2022-09-11T08:30:38.501Z,52.21
2022-09-11T08:31:38.472Z,52.21
2022-09-11T08:32:38.476Z,52.69
2022-09-11T08:33:38.539Z,48.98
2022-09-11T08:34:38.530Z,44.96
2022-09-11T08:35:38.476Z,58.49
2022-09-11T08:36:38.462Z,55.91
2022-09-11T08:37:38.464Z,65.90
2022-09-11T08:38:38.466Z,66.39
2022-09-11T08:39:38.484Z,59.14
2022-09-11T08:40:38.427Z,48.02
2022-09-11T08:41:38.464Z,45.44
2022-09-11T08:42:38.436Z,55.27
2022-09-11T08:43:38.413Z,58.81
2022-09-11T08:44:39.276Z,61.07
2022-09-11T08:45:39.447Z,58.33
2022-09-11T08:46:38.387Z,52.69
2022-09-11T08:47:38.388Z,45.60
2022-09-11T08:48:38.401Z,55.27
2022-09-11T08:49:38.416Z,65.10
2022-09-11T08:50:38.378Z,55.75
2022-09-11T08:51:38.372Z,64.94
2022-09-11T08:52:38.360Z,47.86
2022-09-11T08:53:38.360Z,47.70
2022-09-11T08:54:38.359Z,51.40
2022-09-11T08:55:38.395Z,53.33
2022-09-11T08:56:38.356Z,53.33
2022-09-11T08:57:38.328Z,46.25
2022-09-11T08:58:38.333Z,53.33
2022-09-11T08:59:38.308Z,53.33
2022-09-11T09:00:38.469Z,56.88
2022-09-11T09:01:38.347Z,64.13
2022-09-11T09:02:38.343Z,61.07
2022-09-11T09:03:38.345Z,64.13
2022-09-11T09:04:38.290Z,62.52
2022-09-11T09:05:38.338Z,60.91
2022-09-11T09:06:38.283Z,57.20
2022-09-11T09:07:38.314Z,59.30
2022-09-11T09:08:38.289Z,66.23
2022-09-11T09:09:38.278Z,56.72
2022-09-11T09:10:38.247Z,53.98
2022-09-11T09:11:38.251Z,62.68
2022-09-11T09:12:38.255Z,58.81
2022-09-11T09:13:38.243Z,63.81
2022-09-11T09:14:38.227Z,61.87
2022-09-11T09:15:38.315Z,66.55
2022-09-11T09:16:38.219Z,61.87
2022-09-11T09:17:38.205Z,54.62
2022-09-11T09:18:38.206Z,50.27
2022-09-11T09:19:38.203Z,65.58
2022-09-11T09:20:38.179Z,54.95
2022-09-11T09:21:38.196Z,66.39
2022-09-11T09:22:38.202Z,68.00
2022-09-11T09:23:38.183Z,65.10
2022-09-11T09:24:38.161Z,57.36
2022-09-11T09:25:38.148Z,68.64
2022-09-11T09:26:38.632Z,68.16
2022-09-11T09:27:39.139Z,71.70
2022-09-11T09:28:38.151Z,68.16
2022-09-11T09:29:38.145Z,67.35
2022-09-11T09:30:38.128Z,68.16
2022-09-11T09:31:38.129Z,51.72
2022-09-11T09:32:38.119Z,50.60
2022-09-11T09:33:38.119Z,68.00
2022-09-11T09:34:39.144Z,66.23
2022-09-11T09:35:38.104Z,63.81
2022-09-11T09:36:38.088Z,62.20
2022-09-11T09:37:38.094Z,64.94
2022-09-11T09:38:38.089Z,56.56
2022-09-11T09:39:38.100Z,57.69
2022-09-11T09:40:38.106Z,60.91
2022-09-11T09:41:38.063Z,49.31
2022-09-11T09:42:38.101Z,61.23
2022-09-11T09:43:38.065Z,69.93
2022-09-11T09:44:38.650Z,68.80
2022-09-11T09:45:38.115Z,63.33
2022-09-11T09:46:38.035Z,68.80
2022-09-11T09:47:38.030Z,60.26
2022-09-11T09:48:38.027Z,66.39
2022-09-11T09:49:38.024Z,50.92
2022-09-11T09:50:38.039Z,64.45
2022-09-11T09:51:38.011Z,71.06
2022-09-11T09:52:38.005Z,67.51
2022-09-11T09:53:37.995Z,57.85
2022-09-11T09:54:37.978Z,61.39
2022-09-11T09:55:37.994Z,66.55
2022-09-11T09:56:37.994Z,64.29
2022-09-11T09:57:37.955Z,64.78
2022-09-11T09:58:37.962Z,66.55
2022-09-11T09:59:37.946Z,67.51
2022-09-11T10:00:37.979Z,62.36
2022-09-11T10:01:37.968Z,69.45
2022-09-11T10:02:37.989Z,64.94
2022-09-11T10:03:37.967Z,67.51
2022-09-11T10:04:37.947Z,55.43
2022-09-11T10:05:37.953Z,64.29
2022-09-11T10:06:37.934Z,52.05
2022-09-11T10:07:37.971Z,64.45
2022-09-11T10:08:37.918Z,66.71
2022-09-11T10:09:37.898Z,53.98
2022-09-11T10:10:37.889Z,69.61
2022-09-11T10:11:37.890Z,49.31
2022-09-11T10:12:37.878Z,60.75
2022-09-11T10:13:37.914Z,53.82
2022-09-11T10:14:52.840Z,64.78
2022-09-11T10:15:39.898Z,68.96
2022-09-11T10:16:37.859Z,64.13
2022-09-11T10:17:37.842Z,69.77
2022-09-11T10:18:37.891Z,67.84
2022-09-11T10:19:37.846Z,68.80
2022-09-11T10:20:37.839Z,70.74
2022-09-11T10:21:37.854Z,63.16
2022-09-11T10:22:37.822Z,69.13
2022-09-11T10:23:37.890Z,68.96
2022-09-11T10:24:37.878Z,66.87
2022-09-11T10:25:37.775Z,68.96
2022-09-11T10:26:38.828Z,68.80
2022-09-11T10:27:37.799Z,64.94
2022-09-11T10:28:38.775Z,69.45
2022-09-11T10:29:37.830Z,60.59
2022-09-11T10:30:37.750Z,65.26
2022-09-11T10:31:37.754Z,65.58
2022-09-11T10:32:37.763Z,64.29
2022-09-11T10:33:37.771Z,65.42
2022-09-11T10:34:37.744Z,56.72
2022-09-11T10:35:37.793Z,69.45
2022-09-11T10:36:37.735Z,64.61
2022-09-11T10:37:37.719Z,58.81
2022-09-11T10:38:41.326Z,63.33
2022-09-11T10:39:38.934Z,62.84
2022-09-11T10:40:37.699Z,66.87
2022-09-11T10:41:37.692Z,63.97
2022-09-11T10:42:38.699Z,66.71
2022-09-11T10:43:37.677Z,61.07
2022-09-11T10:44:37.702Z,64.13
2022-09-11T10:45:37.678Z,61.39
2022-09-11T10:46:38.207Z,63.33
2022-09-11T10:47:37.771Z,56.88
2022-09-11T10:48:37.661Z,66.87
2022-09-11T10:49:37.682Z,66.06
2022-09-11T10:50:38.178Z,60.59
2022-09-11T10:51:37.666Z,68.00
2022-09-11T10:52:37.613Z,66.55
2022-09-11T10:53:37.615Z,55.75
2022-09-11T10:54:37.609Z,52.53
2022-09-11T10:55:37.613Z,66.55
2022-09-11T10:56:37.616Z,59.94
2022-09-11T10:57:37.615Z,68.00
2022-09-11T10:58:37.614Z,61.23
2022-09-11T10:59:37.579Z,62.20
2022-09-11T11:00:37.559Z,69.45
2022-09-11T11:01:37.681Z,65.58
2022-09-11T11:02:37.542Z,52.85
2022-09-11T11:03:37.551Z,54.46
2022-09-11T11:04:38.540Z,66.71
2022-09-11T11:05:37.602Z,63.16
2022-09-11T11:06:37.524Z,61.55
2022-09-11T11:07:37.530Z,66.39
2022-09-11T11:08:39.769Z,68.16
2022-09-11T11:09:37.492Z,66.55
2022-09-11T11:10:37.488Z,67.03
2022-09-11T11:11:37.510Z,63.65
2022-09-11T11:12:37.465Z,65.10
2022-09-11T11:13:37.557Z,67.19
2022-09-11T11:14:37.467Z,49.95
2022-09-11T11:15:37.548Z,49.31
2022-09-11T11:16:37.469Z,69.45
2022-09-11T11:17:37.479Z,68.48
2022-09-11T11:18:37.449Z,61.55
2022-09-11T11:19:37.490Z,72.19
2022-09-11T11:20:37.434Z,58.01
2022-09-11T11:21:37.427Z,70.09
2022-09-11T11:22:37.416Z,67.68
2022-09-11T11:23:37.424Z,64.29
2022-09-11T11:24:37.413Z,66.71
2022-09-11T11:25:37.381Z,61.87
2022-09-11T11:26:38.387Z,67.68
2022-09-11T11:27:37.379Z,65.10
2022-09-11T11:28:37.371Z,59.46
2022-09-11T11:29:37.378Z,62.68
2022-09-11T11:30:37.367Z,63.00
2022-09-11T11:31:39.414Z,69.77
2022-09-11T11:32:38.353Z,66.87
2022-09-11T11:33:37.352Z,68.64
2022-09-11T11:34:37.405Z,63.16
2022-09-11T11:35:37.341Z,60.75
2022-09-11T11:36:37.480Z,57.36
2022-09-11T11:37:37.316Z,70.42
2022-09-11T11:38:37.305Z,68.64
2022-09-11T11:39:37.364Z,65.10
2022-09-11T11:40:38.212Z,63.97
2022-09-11T11:41:37.300Z,58.33
2022-09-11T11:42:37.291Z,68.48
2022-09-11T11:43:37.341Z,57.52
2022-09-11T11:44:37.259Z,70.25
2022-09-11T11:45:37.393Z,68.32
2022-09-11T11:46:37.291Z,71.22
2022-09-11T11:47:37.256Z,62.04
2022-09-11T11:48:37.244Z,60.42
2022-09-11T11:49:37.244Z,53.01
2022-09-11T11:50:37.223Z,64.13
2022-09-11T11:51:37.302Z,59.94
2022-09-11T11:52:37.248Z,63.00
2022-09-11T11:53:37.210Z,67.19
2022-09-11T11:54:37.197Z,67.84
2022-09-11T11:55:37.200Z,62.36
2022-09-11T11:56:37.201Z,68.00
2022-09-11T11:57:37.226Z,58.97
2022-09-11T11:58:37.192Z,63.16
2022-09-11T11:59:37.168Z,60.26
2022-09-11T12:00:37.175Z,67.35
2022-09-11T12:01:37.284Z,48.50
2022-09-11T12:02:37.173Z,55.43
2022-09-11T12:03:37.221Z,64.61
2022-09-11T12:04:37.144Z,61.07
2022-09-11T12:05:38.157Z,62.20
2022-09-11T12:06:37.121Z,58.17
2022-09-11T12:07:37.133Z,58.33
2022-09-11T12:08:37.693Z,63.65
2022-09-11T12:09:37.100Z,64.45
2022-09-11T12:10:37.110Z,66.39
2022-09-11T12:11:37.085Z,56.56
2022-09-11T12:12:37.134Z,58.97
2022-09-11T12:13:37.125Z,54.79
2022-09-11T12:14:37.094Z,63.81
2022-09-11T12:15:37.078Z,57.69
2022-09-11T12:16:37.143Z,52.37
2022-09-11T12:17:37.829Z,56.88
2022-09-11T12:18:37.069Z,66.23
2022-09-11T12:19:37.109Z,66.55
2022-09-11T12:20:37.063Z,67.84
2022-09-11T12:21:37.064Z,57.20
2022-09-11T12:22:37.048Z,64.45
2022-09-11T12:23:37.043Z,67.03
2022-09-11T12:24:37.087Z,63.00
2022-09-11T12:25:37.058Z,63.97
2022-09-11T12:26:37.146Z,63.00
2022-09-11T12:27:37.027Z,66.39
2022-09-11T12:28:37.023Z,70.25
2022-09-11T12:29:37.047Z,66.39
2022-09-11T12:30:37.035Z,57.04
2022-09-11T12:31:37.068Z,64.29
2022-09-11T12:32:37.702Z,67.51
2022-09-11T12:33:37.029Z,58.01
2022-09-11T12:34:37.022Z,67.35
2022-09-11T12:35:36.983Z,57.36
2022-09-11T12:36:37.713Z,63.97
2022-09-11T12:37:37.051Z,67.03
2022-09-11T12:38:36.963Z,68.96
2022-09-11T12:39:36.997Z,63.00
2022-09-11T12:41:02.925Z,69.45
2022-09-11T12:41:36.952Z,66.06
2022-09-11T12:42:36.954Z,63.97
2022-09-11T12:43:36.938Z,61.87
2022-09-11T12:44:37.730Z,69.29
2022-09-11T12:45:37.022Z,65.26
2022-09-11T12:46:36.919Z,59.62
2022-09-11T12:47:37.918Z,66.23
2022-09-11T12:48:36.914Z,67.84
2022-09-11T12:49:36.902Z,51.40
2022-09-11T12:50:36.928Z,66.39
2022-09-11T12:51:36.885Z,67.19
2022-09-11T12:52:36.893Z,65.90